createdAt,value
2022-09-07T00:01:00.344Z,12.98
2022-09-07T00:06:10.499Z,13.37
2022-09-07T00:11:15.814Z,14.95
2022-09-07T00:16:28.484Z,15.82
2022-09-07T00:21:31.572Z,16.49
2022-09-07T00:26:33.245Z,16.35
2022-09-07T00:31:35.569Z,14.92
2022-09-07T00:36:37.452Z,13.82
2022-09-07T00:41:39.588Z,13.18
2022-09-07T00:46:41.496Z,12.83
2022-09-07T00:51:57.987Z,12.57
2022-09-07T00:57:00.405Z,12.37
2022-09-07T01:02:02.596Z,12.21
2022-09-07T01:07:08.019Z,12.03
2022-09-07T01:12:09.733Z,12.58
2022-09-07T01:17:39.478Z,14.69
2022-09-07T01:22:53.967Z,15.81
2022-09-07T01:28:22.877Z,15.68
2022-09-07T01:33:35.908Z,14.08
2022-09-07T01:38:56.783Z,13.09
2022-09-07T01:44:22.941Z,12.46
2022-09-07T01:49:40.796Z,12.07
2022-09-07T01:54:50.343Z,11.77
2022-09-07T01:59:57.381Z,11.54
2022-09-07T02:05:10.279Z,11.94
2022-09-07T02:10:27.579Z,13.74
2022-09-07T02:15:47.144Z,15.03
2022-09-07T02:20:53.385Z,15.63
2022-09-07T02:26:10.664Z,15.28
2022-09-07T02:31:12.479Z,13.68
2022-09-07T02:36:17.726Z,12.69
2022-09-07T02:41:41.938Z,12.05
2022-09-07T02:47:10.298Z,11.58
2022-09-07T02:52:55.932Z,11.20
2022-09-07T02:58:24.345Z,11.69
2022-09-07T03:03:32.202Z,13.40
2022-09-07T03:08:43.549Z,14.16
2022-09-07T03:13:45.445Z,14.71
2022-09-07T03:18:50.283Z,15.01
2022-09-07T03:23:53.310Z,14.81
2022-09-07T03:28:55.724Z,13.27
2022-09-07T03:33:57.651Z,12.24
2022-09-07T03:38:59.612Z,11.60
2022-09-07T03:44:05.277Z,11.11
2022-09-07T03:49:07.065Z,11.33
2022-09-07T03:54:08.882Z,13.23
2022-09-07T04:04:49.399Z,14.89
2022-09-07T04:21:50.549Z,13.00
2022-09-07T04:26:54.651Z,14.49
2022-09-07T04:31:56.388Z,15.04
2022-09-07T04:36:58.159Z,14.70
2022-09-07T04:42:00.082Z,13.55
2022-09-07T04:47:01.904Z,13.25
2022-09-07T05:24:15.125Z,13.19
2022-09-07T05:49:42.929Z,13.17
2022-09-07T05:55:26.221Z,13.21
2022-09-07T06:00:27.304Z,13.28
2022-09-07T06:05:29.072Z,13.44
2022-09-07T06:15:44.107Z,13.92
2022-09-07T06:20:46.097Z,14.19
2022-09-07T06:25:49.325Z,14.49
2022-09-07T06:30:51.110Z,14.67
2022-09-07T06:36:03.511Z,14.89
2022-09-07T06:51:50.412Z,15.75
2022-09-07T06:56:52.256Z,15.93
2022-09-07T07:01:54.070Z,16.16
2022-09-07T07:06:55.883Z,16.52
2022-09-07T07:11:57.723Z,16.90
2022-09-07T07:16:59.524Z,17.24
2022-09-07T07:22:14.304Z,17.56
2022-09-07T07:27:23.227Z,17.83
2022-09-07T07:32:24.979Z,18.14
2022-09-07T07:37:28.277Z,18.46
2022-09-07T07:42:30.263Z,18.63
2022-09-07T07:47:32.296Z,18.98
2022-09-07T07:58:01.687Z,19.83
2022-09-07T08:03:03.414Z,20.32
2022-09-07T08:08:05.381Z,20.53
2022-09-07T08:13:10.666Z,20.59
2022-09-07T08:18:32.347Z,20.67
2022-09-07T08:23:47.678Z,20.83
2022-09-07T08:28:49.434Z,20.94
2022-09-07T08:33:51.283Z,21.18
2022-09-07T08:38:53.705Z,21.38
2022-09-07T08:44:20.555Z,21.48
2022-09-07T08:49:48.656Z,21.52
2022-09-07T08:55:14.346Z,21.76
2022-09-07T09:00:36.356Z,22.34
2022-09-07T09:06:37.260Z,22.89
2022-09-07T09:12:17.544Z,23.35
2022-09-07T09:17:25.062Z,23.67
2022-09-07T09:22:28.572Z,24.09
2022-09-07T09:27:30.237Z,24.43
2022-09-07T09:32:35.875Z,24.70
2022-09-07T09:37:39.905Z,24.97
2022-09-07T09:42:41.821Z,24.99
2022-09-07T09:47:49.606Z,25.13
2022-09-07T09:52:52.833Z,25.28
2022-09-07T10:08:57.922Z,25.65
2022-09-07T10:13:59.718Z,25.90
2022-09-07T10:19:01.560Z,26.24
2022-09-07T10:24:06.234Z,26.43
2022-09-07T10:29:24.922Z,26.43
2022-09-07T10:34:52.245Z,26.27
2022-09-07T10:40:17.042Z,25.90
2022-09-07T10:45:36.875Z,25.80
2022-09-07T10:50:53.610Z,25.95
2022-09-07T10:56:04.403Z,26.23
2022-09-07T11:01:34.518Z,26.32
2022-09-07T11:06:48.278Z,26.83
2022-09-07T11:12:04.715Z,27.02
2022-09-07T11:17:14.332Z,26.86
2022-09-07T11:22:42.289Z,26.99
2022-09-07T11:28:09.359Z,27.27
2022-09-07T11:33:39.120Z,27.60
2022-09-07T11:39:11.652Z,27.82
2022-09-07T11:44:21.823Z,28.02
2022-09-07T11:49:26.060Z,28.32
2022-09-07T11:54:45.847Z,28.63
2022-09-07T12:10:58.219Z,29.22
2022-09-07T12:36:31.500Z,29.52
2022-09-07T12:41:47.869Z,29.81
2022-09-07T12:47:11.206Z,30.06
2022-09-07T12:52:39.872Z,30.17
2022-09-07T12:58:16.795Z,29.64
2022-09-07T13:09:13.611Z,29.25
2022-09-07T13:14:27.923Z,29.57
2022-09-07T13:19:50.915Z,30.12
2022-09-07T13:24:54.491Z,30.81
2022-09-07T13:30:01.674Z,31.56
2022-09-07T13:35:05.408Z,31.95
2022-09-07T13:40:10.945Z,31.94
2022-09-07T13:45:49.385Z,32.18
2022-09-07T14:21:55.890Z,32.37
2022-09-07T14:27:07.770Z,32.47
2022-09-07T14:32:14.511Z,32.36
2022-09-07T14:43:36.824Z,32.18
2022-09-07T14:48:40.276Z,31.70
2022-09-07T14:54:07.402Z,31.50
2022-09-07T14:59:40.578Z,31.64
2022-09-07T15:05:16.384Z,31.66
2022-09-07T15:10:37.009Z,31.63
2022-09-07T15:15:41.645Z,31.56
2022-09-07T15:20:45.041Z,31.44
2022-09-07T15:25:53.658Z,31.33
2022-09-07T15:36:17.630Z,31.14
2022-09-07T15:41:23.961Z,30.98
2022-09-07T15:46:27.303Z,30.91
2022-09-07T16:13:01.508Z,30.55
2022-09-07T16:18:04.625Z,30.47
2022-09-07T16:23:15.845Z,30.37
2022-09-07T16:28:18.395Z,29.91
2022-09-07T16:33:20.272Z,28.92
2022-09-07T16:43:44.121Z,26.61
2022-09-07T16:48:46.017Z,25.70
2022-09-07T16:53:53.844Z,24.99
2022-09-07T16:59:01.838Z,24.40
2022-09-07T17:04:09.809Z,23.91
2022-09-07T17:09:14.617Z,23.50
2022-09-07T17:14:16.622Z,23.14
2022-09-07T17:19:33.647Z,22.75
2022-09-07T17:24:35.568Z,22.37
2022-09-07T17:29:43.646Z,22.01
2022-09-07T17:35:00.522Z,21.65
2022-09-07T17:40:05.815Z,21.28
2022-09-07T17:45:08.359Z,20.92
2022-09-07T17:50:30.407Z,20.62
2022-09-07T17:55:52.427Z,20.37
2022-09-07T18:01:11.445Z,20.14
2022-09-07T18:06:14.892Z,19.96
2022-09-07T18:16:41.491Z,19.56
2022-09-07T18:21:43.849Z,19.39
2022-09-07T18:26:52.206Z,19.22
2022-09-07T18:31:55.147Z,19.04
2022-09-07T18:36:58.456Z,18.88
2022-09-07T18:42:01.581Z,19.31
2022-09-07T18:47:03.848Z,21.23
2022-09-07T18:57:36.498Z,19.89
2022-09-07T19:02:38.547Z,19.35
2022-09-07T19:07:40.585Z,18.94
2022-09-07T19:12:45.662Z,18.63
2022-09-07T19:17:51.785Z,18.99
2022-09-07T19:22:53.498Z,20.69
2022-09-07T19:27:55.695Z,21.56
2022-09-07T19:33:02.094Z,22.13
2022-09-07T19:38:06.085Z,21.97
2022-09-07T19:43:07.904Z,20.68
2022-09-07T19:48:09.751Z,19.78
2022-09-07T19:53:11.694Z,19.01
2022-09-07T19:58:13.742Z,18.47
2022-09-07T20:03:15.449Z,18.13
2022-09-07T20:08:17.225Z,18.49
2022-09-07T20:13:19.340Z,20.36
2022-09-07T20:18:22.386Z,21.46
2022-09-07T20:23:24.173Z,21.61
2022-09-07T20:28:26.277Z,20.31
2022-09-07T20:33:31.269Z,19.27
2022-09-07T20:38:42.761Z,18.53
2022-09-07T20:43:44.650Z,18.04
2022-09-07T20:48:46.424Z,17.67
2022-09-07T20:54:03.396Z,18.05
2022-09-07T20:59:12.500Z,20.01
2022-09-07T21:04:14.391Z,20.98
2022-09-07T21:09:16.246Z,20.99
2022-09-07T21:14:19.249Z,19.63
2022-09-07T21:19:21.127Z,18.69
2022-09-07T21:24:23.327Z,18.06
2022-09-07T21:29:45.440Z,17.60
2022-09-07T21:35:00.822Z,17.22
2022-09-07T21:40:10.736Z,16.97
2022-09-07T21:45:12.589Z,16.76
2022-09-07T21:50:14.584Z,17.19
2022-09-07T21:55:16.626Z,18.99
2022-09-07T22:00:38.487Z,20.12
2022-09-07T22:05:53.824Z,20.09
2022-09-07T22:11:03.658Z,18.66
2022-09-07T22:16:09.743Z,17.69
2022-09-07T22:21:26.939Z,17.09
2022-09-07T22:26:31.712Z,16.67
2022-09-07T22:31:35.774Z,16.37
2022-09-07T22:36:42.011Z,16.84
2022-09-07T22:41:44.824Z,18.68
2022-09-07T22:46:47.125Z,19.57
2022-09-07T22:51:49.133Z,20.01
2022-09-07T22:56:50.919Z,19.70
2022-09-07T23:01:52.667Z,18.13
2022-09-07T23:06:54.465Z,17.04
2022-09-07T23:11:56.158Z,16.33
2022-09-07T23:17:16.841Z,16.36
2022-09-07T23:22:18.614Z,17.87
2022-09-07T23:27:20.572Z,18.63
2022-09-07T23:32:22.340Z,18.98
2022-09-07T23:37:24.149Z,19.15
2022-09-07T23:42:25.873Z,18.77
2022-09-07T23:47:27.671Z,17.34
2022-09-07T23:52:29.722Z,16.27
2022-09-07T23:57:31.626Z,16.00
